Terminal Aerodrome Forecast
Issued by NWS

Home | Current Version | Previous Version | Graphics & Text | Print | Product List | Glossary Off
Versions: 1 2 3 4 5 6 7 8 9 10 11 12 13 14 15

779
FTUS41 KCLE 191224 CCA
TAFFDY
TAF COR
KFDY 191224Z 1912/2012 25008KT 4SM BR SCT005
      TEMPO 1912/1914 2SM BR BKN005
     FM191400 29008KT P6SM SCT250
     FM200000 VRB03KT P6SM SKC=

USA.gov is the U.S. government's official web portal to all federal, state and local government web resources and services.